createdAt,value
2019-02-17T00:01:47.173Z,85.13
2019-02-17T00:04:18.312Z,85.08
2019-02-17T00:06:49.185Z,85.35
2019-02-17T00:09:20.064Z,85.59
2019-02-17T00:11:51.212Z,85.50
2019-02-17T00:14:23.917Z,85.40
2019-02-17T00:16:55.051Z,85.42
2019-02-17T00:19:25.865Z,85.34
2019-02-17T00:21:56.892Z,85.39
2019-02-17T00:24:27.822Z,85.49
2019-02-17T00:26:58.702Z,85.40
2019-02-17T00:29:29.762Z,85.36
2019-02-17T00:32:00.633Z,85.40
2019-02-17T00:34:31.502Z,85.30
2019-02-17T00:37:02.372Z,85.32
2019-02-17T00:39:33.273Z,85.30
2019-02-17T00:42:04.132Z,85.16
2019-02-17T00:44:36.690Z,85.20
2019-02-17T00:47:07.662Z,85.23
2019-02-17T00:49:38.453Z,85.40
2019-02-17T00:52:09.475Z,85.25
2019-02-17T00:54:40.392Z,84.99
2019-02-17T00:57:11.252Z,84.85
2019-02-17T00:59:42.182Z,84.44
2019-02-17T01:02:13.136Z,84.34
2019-02-17T01:04:44.219Z,84.21
2019-02-17T01:07:15.185Z,83.85
2019-02-17T01:09:46.276Z,83.48
2019-02-17T01:12:16.986Z,82.99
2019-02-17T01:14:47.806Z,82.83
2019-02-17T01:17:18.675Z,82.56
2019-02-17T01:19:49.588Z,82.25
2019-02-17T01:22:20.456Z,81.94
2019-02-17T01:24:52.385Z,82.29
2019-02-17T01:27:23.375Z,82.38
2019-02-17T01:29:54.336Z,82.78
2019-02-17T01:32:25.155Z,82.82
2019-02-17T01:34:56.059Z,82.64
2019-02-17T01:37:26.947Z,82.44
2019-02-17T01:39:57.925Z,82.32
2019-02-17T01:42:28.875Z,82.03
2019-02-17T01:44:59.684Z,82.10
2019-02-17T01:47:30.728Z,82.04
2019-02-17T01:50:01.676Z,82.08
2019-02-17T01:52:32.823Z,81.87
2019-02-17T01:55:03.794Z,81.50
2019-02-17T01:57:34.744Z,81.17
2019-02-17T02:00:05.905Z,80.71
2019-02-17T02:02:38.125Z,80.52
2019-02-17T02:05:08.973Z,80.57
2019-02-17T02:07:39.803Z,80.83
2019-02-17T02:10:11.705Z,81.08
2019-02-17T02:12:42.723Z,81.51
2019-02-17T02:15:13.638Z,81.77
2019-02-17T02:17:44.583Z,81.97
2019-02-17T02:20:15.794Z,81.95
2019-02-17T02:22:46.860Z,81.92
2019-02-17T02:25:17.852Z,82.08
2019-02-17T02:27:48.733Z,82.17
2019-02-17T02:30:19.703Z,82.40
2019-02-17T02:32:50.586Z,82.24
2019-02-17T02:35:21.422Z,82.14
2019-02-17T02:37:53.412Z,82.31
2019-02-17T02:40:24.601Z,82.59
2019-02-17T02:42:55.663Z,82.14
2019-02-17T02:45:26.623Z,81.25
2019-02-17T02:47:57.564Z,80.76
2019-02-17T02:50:28.403Z,80.47
2019-02-17T02:52:59.351Z,80.66
2019-02-17T02:55:30.202Z,80.90
2019-02-17T02:58:01.171Z,81.25
2019-02-17T03:00:32.226Z,81.12
2019-02-17T03:03:03.172Z,81.11
2019-02-17T03:05:35.426Z,80.90
2019-02-17T03:08:06.411Z,80.69
2019-02-17T03:10:37.371Z,80.71
2019-02-17T03:13:08.281Z,80.78
2019-02-17T03:15:39.113Z,80.63
2019-02-17T03:18:09.980Z,80.53
2019-02-17T03:20:40.911Z,80.40
2019-02-17T03:23:11.801Z,80.32
2019-02-17T03:25:45.167Z,80.38
2019-02-17T03:28:15.241Z,80.61
2019-02-17T03:30:46.077Z,80.94
2019-02-17T03:33:16.913Z,81.14
2019-02-17T03:35:47.723Z,81.15
2019-02-17T03:38:18.641Z,81.13
2019-02-17T03:40:49.542Z,81.26
2019-02-17T03:43:20.321Z,81.10
2019-02-17T03:45:51.222Z,80.89
2019-02-17T03:48:22.768Z,80.83
2019-02-17T03:50:53.561Z,80.97
2019-02-17T03:53:24.341Z,80.93
2019-02-17T03:55:55.361Z,81.09
2019-02-17T03:58:26.231Z,81.26
2019-02-17T04:00:57.131Z,81.36
2019-02-17T04:03:27.940Z,81.68
2019-02-17T04:05:58.691Z,81.87
2019-02-17T04:08:29.522Z,81.93
2019-02-17T04:11:00.267Z,81.82
2019-02-17T04:13:31.420Z,81.30
2019-02-17T04:16:02.188Z,81.02
2019-02-17T04:18:33.117Z,80.61
2019-02-17T04:21:04.487Z,80.53
2019-02-17T04:23:35.441Z,80.41
2019-02-17T04:26:06.771Z,80.47
2019-02-17T04:28:37.630Z,80.38
2019-02-17T04:31:08.514Z,80.19
2019-02-17T04:33:39.600Z,79.99
2019-02-17T04:36:10.331Z,79.95
2019-02-17T04:38:41.231Z,80.03
2019-02-17T04:41:12.224Z,80.24
2019-02-17T04:43:43.114Z,80.41
2019-02-17T04:46:13.884Z,80.50
2019-02-17T04:48:44.851Z,80.40
2019-02-17T04:51:15.722Z,80.26
2019-02-17T04:53:46.650Z,80.33
2019-02-17T04:56:17.490Z,80.31
2019-02-17T04:58:48.369Z,80.43
2019-02-17T05:01:19.272Z,80.63
2019-02-17T05:03:50.072Z,80.71
2019-02-17T05:06:21.033Z,80.27
2019-02-17T05:08:51.882Z,79.80
2019-02-17T05:11:23.096Z,80.06
2019-02-17T05:13:54.084Z,80.23
2019-02-17T05:16:24.896Z,80.57
2019-02-17T05:18:55.626Z,80.62
2019-02-17T05:21:26.656Z,80.72
2019-02-17T05:23:57.696Z,80.78
2019-02-17T05:26:28.614Z,80.67
2019-02-17T05:28:59.430Z,80.50
2019-02-17T05:31:30.177Z,80.71
2019-02-17T05:34:01.009Z,80.63
2019-02-17T05:36:31.824Z,80.75
2019-02-17T05:39:02.839Z,81.00
2019-02-17T05:41:34.866Z,80.89
2019-02-17T05:44:05.917Z,80.95
2019-02-17T05:46:36.769Z,81.13
2019-02-17T05:49:08.055Z,81.23
2019-02-17T05:51:38.826Z,81.27
2019-02-17T05:54:09.887Z,81.39
2019-02-17T05:56:40.689Z,81.07
2019-02-17T05:59:11.656Z,81.07
2019-02-17T06:01:42.427Z,81.10
2019-02-17T06:04:13.422Z,81.16
2019-02-17T06:06:44.239Z,81.01
2019-02-17T06:09:15.148Z,80.46
2019-02-17T06:11:46.066Z,79.96
2019-02-17T06:14:16.957Z,79.70
2019-02-17T06:16:47.847Z,79.51
2019-02-17T06:19:18.757Z,79.20
2019-02-17T06:21:49.646Z,79.18
2019-02-17T06:24:20.527Z,78.99
2019-02-17T06:26:51.358Z,79.01
2019-02-17T06:29:22.211Z,78.88
2019-02-17T06:31:53.148Z,78.83
2019-02-17T06:34:24.023Z,78.63
2019-02-17T06:36:54.857Z,78.40
2019-02-17T06:39:25.829Z,78.23
2019-02-17T06:41:56.857Z,78.01
2019-02-17T06:44:27.697Z,77.86
2019-02-17T06:47:01.530Z,77.78
2019-02-17T06:49:32.403Z,77.62
2019-02-17T06:52:03.337Z,77.62
2019-02-17T06:54:34.128Z,77.63
2019-02-17T06:57:17.807Z,77.46
2019-02-17T06:59:48.727Z,77.32
2019-02-17T07:02:19.539Z,76.99
2019-02-17T07:05:21.195Z,76.85
2019-02-17T07:07:52.298Z,76.47
2019-02-17T07:10:23.207Z,76.33
2019-02-17T07:12:54.177Z,76.07
2019-02-17T07:15:25.167Z,75.83
2019-02-17T07:17:56.112Z,75.71
2019-02-17T07:20:26.948Z,75.41
2019-02-17T07:22:57.817Z,75.01
2019-02-17T07:25:30.373Z,74.69
2019-02-17T07:28:01.342Z,74.42
2019-02-17T07:30:32.409Z,73.94
2019-02-17T07:33:03.307Z,73.77
2019-02-17T07:35:34.268Z,73.35
2019-02-17T07:38:05.307Z,73.15
2019-02-17T07:40:36.361Z,72.40
2019-02-17T07:43:07.137Z,71.73
2019-02-17T07:45:38.228Z,71.88
2019-02-17T07:48:09.107Z,72.08
2019-02-17T07:50:40.219Z,72.04
2019-02-17T07:53:11.076Z,71.93
2019-02-17T07:55:41.968Z,71.56
2019-02-17T07:58:14.517Z,71.55
2019-02-17T08:00:45.607Z,71.35
2019-02-17T08:03:16.468Z,70.83
2019-02-17T08:05:47.397Z,70.97
2019-02-17T08:08:18.367Z,70.87
2019-02-17T08:10:49.136Z,69.07
2019-02-17T08:13:19.947Z,67.49
2019-02-17T08:15:50.727Z,66.68
2019-02-17T08:18:21.688Z,67.02
2019-02-17T08:20:53.487Z,67.24
2019-02-17T08:23:24.565Z,67.55
2019-02-17T08:25:55.360Z,66.93
2019-02-17T08:28:26.390Z,67.32
2019-02-17T08:30:57.417Z,67.28
2019-02-17T08:33:29.505Z,66.89
2019-02-17T08:36:00.537Z,66.78
2019-02-17T08:38:31.338Z,66.48
2019-02-17T08:41:02.409Z,66.27
2019-02-17T08:43:33.468Z,66.10
2019-02-17T08:46:04.448Z,65.76
2019-02-17T08:48:35.448Z,65.31
2019-02-17T08:51:07.359Z,65.02
2019-02-17T08:58:20.749Z,71.20
2019-02-17T09:00:51.620Z,61.58
2019-02-17T09:03:22.539Z,53.25
2019-02-17T09:05:53.428Z,46.61
2019-02-17T09:08:24.518Z,59.65
2019-02-17T09:10:56.963Z,47.96
2019-02-17T09:13:27.731Z,38.20
2019-02-17T09:15:58.618Z,38.04
2019-02-17T09:18:29.577Z,38.24
2019-02-17T09:21:00.418Z,37.52
2019-02-17T10:28:17.998Z,46.81
2019-02-17T10:30:52.247Z,46.28
2019-02-17T10:33:23.374Z,46.94
2019-02-17T10:35:57.218Z,46.11
2019-02-17T10:38:28.352Z,46.29
2019-02-17T10:40:59.389Z,46.65
2019-02-17T10:43:30.403Z,47.11
2019-02-17T10:46:01.277Z,46.65
2019-02-17T10:48:32.387Z,47.38
2019-02-17T10:51:03.507Z,47.13
2019-02-17T10:53:35.707Z,46.77
2019-02-17T10:56:06.899Z,47.36
2019-02-17T10:58:37.872Z,47.73
2019-02-17T11:01:08.817Z,48.03
2019-02-17T11:03:39.637Z,47.38
2019-02-17T11:06:10.798Z,47.64
2019-02-17T11:08:41.777Z,47.89
2019-02-17T11:11:13.038Z,48.03
2019-02-17T11:13:44.177Z,47.50
2019-02-17T11:16:16.717Z,46.16
2019-02-17T11:18:48.049Z,47.36
2019-02-17T11:21:19.018Z,47.46
2019-02-17T11:23:54.858Z,47.47
2019-02-17T11:26:25.779Z,47.97
2019-02-17T11:31:54.368Z,48.06
2019-02-17T11:34:25.476Z,47.13
2019-02-17T11:36:56.360Z,47.22
2019-02-17T11:39:31.459Z,47.69
2019-02-17T11:42:04.948Z,47.78
2019-02-17T11:44:36.047Z,49.31
2019-02-17T11:47:07.540Z,48.76
2019-02-17T11:49:38.617Z,48.38
2019-02-17T11:52:09.727Z,48.07
2019-02-17T11:54:40.758Z,47.04
2019-02-17T11:57:11.753Z,46.58
2019-02-17T11:59:46.738Z,47.25
2019-02-17T12:02:24.932Z,47.27
2019-02-17T12:04:51.873Z,46.41
2019-02-17T12:07:22.958Z,46.89
2019-02-17T12:09:58.157Z,47.54
2019-02-17T12:12:30.641Z,47.68
2019-02-17T12:15:01.739Z,47.42
2019-02-17T12:17:32.847Z,47.38
2019-02-17T12:20:23.622Z,47.13
2019-02-17T12:23:22.138Z,46.14
2019-02-17T12:26:24.427Z,46.33
2019-02-17T12:29:11.576Z,45.21
2019-02-17T12:31:45.627Z,45.90
2019-02-17T12:34:21.081Z,46.09
2019-02-17T12:36:52.071Z,46.75
2019-02-17T12:39:23.121Z,46.51
2019-02-17T12:41:54.067Z,46.73
2019-02-17T12:44:25.117Z,46.57
2019-02-17T12:46:55.993Z,46.13
2019-02-17T12:49:27.909Z,47.84
2019-02-17T12:52:02.103Z,48.47
2019-02-17T12:54:33.469Z,47.78
2019-02-17T12:57:06.200Z,46.66
2019-02-17T12:59:37.413Z,44.95
2019-02-17T13:02:11.417Z,44.75
2019-02-17T13:04:45.437Z,45.38
2019-02-17T13:07:20.912Z,46.17
2019-02-17T13:09:52.148Z,46.87
2019-02-17T13:12:23.177Z,46.74
2019-02-17T13:15:00.329Z,47.16
2019-02-17T13:17:31.377Z,46.79
2019-02-17T13:20:02.669Z,48.15
2019-02-17T13:22:33.774Z,47.69
2019-02-17T13:25:44.848Z,47.00
2019-02-17T13:28:15.940Z,47.15
2019-02-17T13:30:47.215Z,47.14
2019-02-17T13:33:18.208Z,46.93
2019-02-17T13:35:49.376Z,46.16
2019-02-17T13:38:31.786Z,45.04
2019-02-17T13:41:10.247Z,45.08
2019-02-17T13:44:06.972Z,44.49
2019-02-17T13:46:38.309Z,44.00
2019-02-17T13:49:20.118Z,44.66
2019-02-17T13:52:14.987Z,45.21
2019-02-17T13:55:07.037Z,44.69
2019-02-17T13:57:38.323Z,44.19
2019-02-17T14:00:17.458Z,43.98
2019-02-17T14:02:59.707Z,43.96
2019-02-17T14:05:27.987Z,44.85
2019-02-17T14:08:02.656Z,45.25
2019-02-17T14:10:33.960Z,46.02
2019-02-17T14:13:15.621Z,44.76
2019-02-17T14:15:52.228Z,44.16
2019-02-17T14:18:26.127Z,46.04
2019-02-17T14:20:57.350Z,46.57
2019-02-17T14:23:28.618Z,46.75
2019-02-17T14:26:06.856Z,48.13
2019-02-17T14:28:39.269Z,48.51
2019-02-17T14:31:10.317Z,47.81
2019-02-17T14:33:41.418Z,47.36
2019-02-17T14:36:18.626Z,48.82
2019-02-17T14:38:56.297Z,50.90
2019-02-17T14:41:30.182Z,53.65
2019-02-17T14:44:01.498Z,54.37
2019-02-17T14:46:32.772Z,55.04
2019-02-17T14:49:05.150Z,55.10
2019-02-17T14:51:37.063Z,55.13
2019-02-17T14:54:52.526Z,55.83
2019-02-17T14:58:06.024Z,56.70
2019-02-17T15:01:17.067Z,57.71
2019-02-17T15:04:22.808Z,58.47
2019-02-17T15:07:46.506Z,59.01
2019-02-17T15:10:53.084Z,59.28
2019-02-17T15:14:00.667Z,59.52
2019-02-17T15:16:39.736Z,59.95
2019-02-17T15:19:15.047Z,60.33
2019-02-17T15:22:45.858Z,60.61
2019-02-17T15:25:26.375Z,60.92
2019-02-17T15:28:06.667Z,61.36
2019-02-17T15:30:58.359Z,61.59
2019-02-17T15:33:35.726Z,62.69
2019-02-17T15:36:52.774Z,62.69
2019-02-17T15:39:58.007Z,62.91
2019-02-17T15:42:32.237Z,63.08
2019-02-17T15:45:06.586Z,63.39
2019-02-17T15:47:41.682Z,63.71
2019-02-17T15:50:21.086Z,63.92
2019-02-17T15:52:56.537Z,63.92
2019-02-17T15:55:27.798Z,64.29
2019-02-17T15:58:00.925Z,64.45
2019-02-17T16:00:32.155Z,64.74
2019-02-17T16:03:03.407Z,65.06
2019-02-17T16:05:34.586Z,65.14
2019-02-17T16:08:05.804Z,65.56
2019-02-17T16:10:36.897Z,65.77
2019-02-17T16:13:08.139Z,65.89
2019-02-17T16:15:39.415Z,66.30
2019-02-17T16:18:14.646Z,66.52
2019-02-17T16:20:49.419Z,66.81
2019-02-17T16:23:21.555Z,66.87
2019-02-17T16:25:53.106Z,67.16
2019-02-17T16:28:26.800Z,67.35
2019-02-17T16:31:02.781Z,67.95
2019-02-17T16:33:36.679Z,67.83
2019-02-17T16:36:10.478Z,68.04
2019-02-17T16:38:46.273Z,67.95
2019-02-17T16:41:21.906Z,67.97
2019-02-17T16:43:56.042Z,68.15
2019-02-17T16:46:27.811Z,68.23
2019-02-17T16:49:07.257Z,68.36
2019-02-17T16:51:41.280Z,68.34
2019-02-17T16:54:45.029Z,68.22
2019-02-17T16:57:43.189Z,68.53
2019-02-17T17:00:21.277Z,68.89
2019-02-17T17:02:53.925Z,68.93
2019-02-17T17:05:25.380Z,69.31
2019-02-17T17:08:00.418Z,69.21
2019-02-17T17:10:31.537Z,69.45
2019-02-17T17:13:03.049Z,69.56
2019-02-17T17:15:34.216Z,69.53
2019-02-17T17:18:05.425Z,69.94
2019-02-17T17:20:36.778Z,70.52
2019-02-17T17:23:08.128Z,71.20
2019-02-17T17:25:40.186Z,71.62
2019-02-17T17:28:11.767Z,72.48
2019-02-17T17:30:43.176Z,73.09
2019-02-17T17:33:14.566Z,72.68
2019-02-17T17:35:45.777Z,73.02
2019-02-17T17:38:17.215Z,73.21
2019-02-17T17:40:48.671Z,73.08
2019-02-17T17:43:27.290Z,73.48
2019-02-17T17:46:12.587Z,72.56
2019-02-17T17:48:49.056Z,72.68
2019-02-17T17:51:21.536Z,72.57
2019-02-17T17:53:52.908Z,72.71
2019-02-17T17:56:26.436Z,73.45
2019-02-17T17:58:57.752Z,73.92
2019-02-17T18:01:32.003Z,73.42
2019-02-17T18:04:03.357Z,73.39
2019-02-17T18:06:34.718Z,73.65
2019-02-17T18:09:07.616Z,73.83
2019-02-17T18:11:37.857Z,74.69
2019-02-17T18:14:10.878Z,76.72
2019-02-17T18:16:42.018Z,75.31
2019-02-17T18:19:13.196Z,75.42
2019-02-17T18:21:44.386Z,75.34
2019-02-17T18:24:15.507Z,74.51
2019-02-17T18:26:46.876Z,73.85
2019-02-17T18:29:21.046Z,73.43
2019-02-17T18:31:52.338Z,73.90
2019-02-17T18:34:23.637Z,74.30
2019-02-17T18:36:54.978Z,75.08
2019-02-17T18:39:30.306Z,74.48
2019-02-17T18:42:03.167Z,74.41
2019-02-17T18:44:34.436Z,73.88
2019-02-17T18:47:05.657Z,74.00
2019-02-17T18:49:37.061Z,74.11
2019-02-17T18:52:08.247Z,74.28
2019-02-17T18:54:40.028Z,74.44
2019-02-17T18:57:22.308Z,75.52
2019-02-17T18:59:53.565Z,76.89
2019-02-17T19:02:24.781Z,76.38
2019-02-17T19:04:56.107Z,76.73
2019-02-17T19:07:27.366Z,76.70
2019-02-17T19:09:58.648Z,76.77
2019-02-17T19:12:30.039Z,76.95
2019-02-17T19:15:01.238Z,76.23
2019-02-17T19:17:32.548Z,75.43
2019-02-17T19:20:03.798Z,75.02
2019-02-17T19:22:37.296Z,75.60
2019-02-17T19:25:09.128Z,76.13
2019-02-17T19:27:40.386Z,77.06
2019-02-17T19:30:13.141Z,76.22
2019-02-17T19:32:45.822Z,75.59
2019-02-17T19:35:17.487Z,76.71
2019-02-17T19:37:50.178Z,77.13
2019-02-17T19:40:22.856Z,77.62
2019-02-17T19:42:54.302Z,77.65
2019-02-17T19:45:46.017Z,77.90
2019-02-17T19:48:22.395Z,77.58
2019-02-17T19:50:56.176Z,77.87
2019-02-17T19:54:12.846Z,77.30
2019-02-17T19:56:40.958Z,77.33
2019-02-17T19:59:13.488Z,77.52
2019-02-17T20:01:44.618Z,77.14
2019-02-17T20:04:25.155Z,77.04
2019-02-17T20:06:56.247Z,76.76
2019-02-17T20:09:33.849Z,76.79
2019-02-17T20:12:20.483Z,76.86
2019-02-17T20:14:56.889Z,77.05
2019-02-17T20:17:33.637Z,78.26
2019-02-17T20:20:05.252Z,78.32
2019-02-17T20:22:37.497Z,77.59
2019-02-17T20:25:10.428Z,77.42
2019-02-17T20:27:41.327Z,77.01
2019-02-17T20:33:58.878Z,77.54
2019-02-17T20:36:38.017Z,77.61
2019-02-17T20:39:09.158Z,77.58
2019-02-17T20:41:40.237Z,78.32
2019-02-17T20:44:48.507Z,77.68
2019-02-17T20:47:40.172Z,77.10
2019-02-17T20:55:06.736Z,77.26
2019-02-17T20:57:22.315Z,78.64
2019-02-17T21:00:43.067Z,78.33
2019-02-17T21:03:52.276Z,79.70
2019-02-17T21:06:30.531Z,78.35
2019-02-17T21:09:24.086Z,78.44
2019-02-17T21:12:02.196Z,78.43
2019-02-17T21:21:45.936Z,78.68
2019-02-17T21:24:18.328Z,79.02
2019-02-17T21:27:17.496Z,78.53
2019-02-17T21:29:33.967Z,78.24
2019-02-17T21:32:04.858Z,78.30
2019-02-17T21:34:39.637Z,78.14
2019-02-17T21:37:18.816Z,78.83
2019-02-17T21:39:49.711Z,78.96
2019-02-17T21:42:22.878Z,78.72
2019-02-17T21:44:54.038Z,78.48
2019-02-17T21:47:29.758Z,78.63
2019-02-17T21:50:03.397Z,78.96
2019-02-17T21:52:34.538Z,79.24
2019-02-17T21:55:05.619Z,79.19
2019-02-17T21:57:36.587Z,78.84
2019-02-17T22:00:09.606Z,79.36
2019-02-17T22:02:40.827Z,78.87
2019-02-17T22:05:11.807Z,79.07
2019-02-17T22:07:42.906Z,79.30
2019-02-17T22:10:14.019Z,79.40
2019-02-17T22:12:45.067Z,78.95
2019-02-17T22:15:16.557Z,78.85
2019-02-17T22:17:48.667Z,79.26
2019-02-17T22:20:19.497Z,79.23
2019-02-17T22:22:52.278Z,79.39
2019-02-17T22:25:24.802Z,79.54
2019-02-17T22:27:55.766Z,79.54
2019-02-17T22:30:26.688Z,79.71
2019-02-17T22:32:57.697Z,80.39
2019-02-17T22:35:28.482Z,80.26
2019-02-17T22:37:59.487Z,80.19
2019-02-17T22:40:30.578Z,80.04
2019-02-17T22:43:01.587Z,80.14
2019-02-17T22:45:32.507Z,79.80
2019-02-17T22:48:04.337Z,79.37
2019-02-17T22:50:35.137Z,79.11
2019-02-17T22:53:06.135Z,79.58
2019-02-17T22:55:36.947Z,80.01
2019-02-17T22:58:07.817Z,80.13
2019-02-17T23:00:56.167Z,80.38
2019-02-17T23:03:29.197Z,80.28
2019-02-17T23:06:03.267Z,80.33
2019-02-17T23:08:34.158Z,80.34
2019-02-17T23:11:06.012Z,80.50
2019-02-17T23:13:38.277Z,80.15
2019-02-17T23:16:08.366Z,80.40
2019-02-17T23:18:53.113Z,82.02
2019-02-17T23:21:24.038Z,80.52
2019-02-17T23:23:57.077Z,80.28
2019-02-17T23:26:30.869Z,80.23
2019-02-17T23:29:00.846Z,80.18
2019-02-17T23:31:37.938Z,81.75
2019-02-17T23:34:10.297Z,80.18
2019-02-17T23:36:41.271Z,80.21
2019-02-17T23:39:24.221Z,80.08
2019-02-17T23:45:45.579Z,80.49
2019-02-17T23:48:31.486Z,80.68
2019-02-17T23:51:36.497Z,80.61
2019-02-17T23:54:09.764Z,80.53
2019-02-17T23:56:40.678Z,80.60
2019-02-17T23:59:11.531Z,80.39
